Time;durP1;ratioP1;P1;durP2;ratioP2;P2;SDS_P1;SDS_P2;PMS_P1;PMS_P2;Temp;Humidity;BMP_temperature;BMP_pressure;BME280_temperature;BME280_humidity;BME280_pressure;Samples;Min_cycle;Max_cycle;Signal;HPM_P1;HPM_P2
2024/01/19 00:01:26;;;;;;;;;;;0.90;99.90;;;;;;5087503;28;19908;-67
2024/01/19 00:03:54;;;;;;;;;;;0.90;99.90;;;;;;5088703;28;19912;-67
2024/01/19 00:06:22;;;;;;;;;;;0.90;99.90;;;;;;5085741;28;19915;-67
2024/01/19 00:08:47;;;;;;;;;;;1.00;99.90;;;;;;5093305;28;20002;-67
2024/01/19 00:11:15;;;;;;;;;;;1.00;99.90;;;;;;5087945;28;20342;-67
2024/01/19 00:13:41;;;;;;;;;;;0.90;99.90;;;;;;5090110;28;20436;-67
2024/01/19 00:16:07;;;;;;;;;;;0.90;99.90;;;;;;5093701;28;19950;-67
2024/01/19 00:18:32;;;;;;;;;;;1.00;99.90;;;;;;5092354;28;19908;-67
2024/01/19 00:21:00;;;;;;;;;;;1.00;99.90;;;;;;5088537;28;19916;-67
2024/01/19 00:23:26;;;;;;;;;;;0.90;99.90;;;;;;5075866;28;19932;-67
2024/01/19 00:25:51;;;;;;;;;;;1.00;99.90;;;;;;5078192;28;19920;-67
2024/01/19 00:28:19;;;;;;;;;;;1.00;99.90;;;;;;5088730;28;19962;-67
2024/01/19 00:30:45;;;;;;;;;;;1.00;99.90;;;;;;5090847;28;19904;-67
2024/01/19 00:33:10;;;;;;;;;;;1.00;99.90;;;;;;5089370;28;20291;-67
2024/01/19 00:35:36;;;;;;;;;;;1.00;99.90;;;;;;5089012;28;19920;-67
2024/01/19 00:38:02;;;;;;;;;;;1.00;99.90;;;;;;5087663;28;19927;-67
2024/01/19 00:40:29;;;;;;;;;;;1.10;99.90;;;;;;5070021;28;19916;-67
2024/01/19 00:42:55;;;;;;;;;;;1.10;99.90;;;;;;5094082;28;20602;-67
2024/01/19 00:45:22;;;;;;;;;;;1.10;99.90;;;;;;5094416;22;19916;-66
2024/01/19 00:47:48;;;;;;;;;;;1.10;99.90;;;;;;5044265;28;20346;-67
2024/01/19 00:50:16;;;;;;;;;;;1.10;99.90;;;;;;5047924;28;19917;-67
2024/01/19 00:52:41;;;;;;;;;;;1.20;99.90;;;;;;5026984;28;19913;-67
2024/01/19 00:55:07;;;;;;;;;;;1.10;99.90;;;;;;5043140;28;20396;-67
2024/01/19 00:57:32;;;;;;;;;;;1.20;99.90;;;;;;5044173;28;19919;-67
2024/01/19 00:59:58;;;;;;;;;;;1.20;99.90;;;;;;5044127;28;19917;-67
2024/01/19 01:02:27;;;;;;;;;;;1.20;99.90;;;;;;5032454;28;20082;-67
2024/01/19 01:04:57;;;;;;;;;;;1.20;99.90;;;;;;5029293;28;20011;-67
2024/01/19 01:07:25;;;;;;;;;;;1.20;99.90;;;;;;5039571;28;19988;-67
2024/01/19 01:09:56;;;;;;;;;;;1.30;99.90;;;;;;5024053;28;19909;-67
2024/01/19 01:12:21;;;;;;;;;;;1.20;99.90;;;;;;5024812;28;19913;-67
2024/01/19 01:14:49;;;;;;;;;;;1.30;99.90;;;;;;5036536;28;19913;-68
2024/01/19 01:17:15;;;;;;;;;;;1.30;99.90;;;;;;5040093;28;19963;-67
2024/01/19 01:19:40;;;;;;;;;;;1.30;99.90;;;;;;5044479;28;19920;-67
2024/01/19 01:22:06;;;;;;;;;;;1.30;99.90;;;;;;5038015;28;20390;-67
2024/01/19 01:24:33;;;;;;;;;;;1.30;99.90;;;;;;5041713;28;19920;-67
2024/01/19 01:26:59;;;;;;;;;;;1.30;99.90;;;;;;5043607;28;19967;-67
2024/01/19 01:29:24;;;;;;;;;;;1.40;99.90;;;;;;5039589;28;19912;-67
2024/01/19 01:31:51;;;;;;;;;;;1.40;99.90;;;;;;5035601;28;19917;-67
2024/01/19 01:34:19;;;;;;;;;;;1.50;99.90;;;;;;5038910;28;19916;-67
2024/01/19 01:36:46;;;;;;;;;;;1.50;99.90;;;;;;5040588;28;19912;-67
2024/01/19 01:39:12;;;;;;;;;;;1.50;99.90;;;;;;5040251;28;20511;-67
2024/01/19 01:41:41;;;;;;;;;;;1.50;99.90;;;;;;5037604;28;19925;-67
2024/01/19 01:44:06;;;;;;;;;;;1.50;99.90;;;;;;5034472;28;19935;-67
2024/01/19 01:46:31;;;;;;;;;;;1.50;99.90;;;;;;5040972;28;20331;-67
2024/01/19 01:48:57;;;;;;;;;;;1.60;99.90;;;;;;5036653;28;19912;-67
2024/01/19 01:51:23;;;;;;;;;;;1.50;99.90;;;;;;5036416;28;19917;-67
2024/01/19 01:53:49;;;;;;;;;;;1.60;99.90;;;;;;5039192;28;19965;-67
2024/01/19 01:56:14;;;;;;;;;;;1.60;99.90;;;;;;5038903;28;19912;-67
2024/01/19 01:58:42;;;;;;;;;;;1.60;99.90;;;;;;5040993;28;19917;-67
2024/01/19 02:01:08;;;;;;;;;;;1.60;99.90;;;;;;5040224;28;19917;-67
2024/01/19 02:03:34;;;;;;;;;;;1.60;99.90;;;;;;5040990;28;20367;-67
2024/01/19 02:06:02;;;;;;;;;;;1.60;99.90;;;;;;5043492;28;19979;-67
2024/01/19 02:08:27;;;;;;;;;;;1.70;99.90;;;;;;5037728;28;19916;-67
2024/01/19 02:10:53;;;;;;;;;;;1.70;99.90;;;;;;5044484;28;20394;-67
2024/01/19 02:13:21;;;;;;;;;;;1.70;99.90;;;;;;5038309;28;19913;-67
2024/01/19 02:15:46;;;;;;;;;;;1.70;99.90;;;;;;5042848;28;19904;-67
2024/01/19 02:18:14;;;;;;;;;;;1.60;99.90;;;;;;5039451;28;19921;-67
2024/01/19 02:20:39;;;;;;;;;;;1.60;99.90;;;;;;5040997;28;19948;-67
2024/01/19 02:23:12;;;;;;;;;;;1.60;99.90;;;;;;5045651;28;19917;-67
2024/01/19 02:25:37;;;;;;;;;;;1.60;99.90;;;;;;5047233;28;19912;-67
2024/01/19 02:28:03;;;;;;;;;;;1.60;99.90;;;;;;5048102;28;19908;-67
2024/01/19 02:30:29;;;;;;;;;;;1.60;99.90;;;;;;5048030;28;19934;-67
2024/01/19 02:32:57;;;;;;;;;;;1.60;99.90;;;;;;5046950;28;19921;-67
2024/01/19 02:35:22;;;;;;;;;;;1.60;99.90;;;;;;5040967;28;19920;-67
2024/01/19 02:37:47;;;;;;;;;;;1.60;99.90;;;;;;5047268;28;20343;-67
2024/01/19 02:40:13;;;;;;;;;;;1.60;99.90;;;;;;5048683;28;19924;-67
2024/01/19 02:42:38;;;;;;;;;;;1.60;99.90;;;;;;5049629;28;19921;-67
2024/01/19 02:45:04;;;;;;;;;;;1.60;99.90;;;;;;5046580;28;19913;-67
2024/01/19 02:47:30;;;;;;;;;;;1.70;99.90;;;;;;5047485;28;19924;-67
2024/01/19 02:49:55;;;;;;;;;;;1.70;99.90;;;;;;5046703;28;19920;-67
2024/01/19 02:52:21;;;;;;;;;;;1.70;99.90;;;;;;5048022;28;19909;-67
2024/01/19 02:54:47;;;;;;;;;;;1.70;99.90;;;;;;5047576;28;20035;-67
2024/01/19 02:57:12;;;;;;;;;;;1.70;99.90;;;;;;5047238;28;19913;-67
2024/01/19 02:59:40;;;;;;;;;;;1.70;99.90;;;;;;5052429;28;20390;-67
2024/01/19 03:02:08;;;;;;;;;;;1.70;99.90;;;;;;5046165;28;20387;-67
2024/01/19 03:04:33;;;;;;;;;;;1.70;99.90;;;;;;5047640;28;20046;-67
2024/01/19 03:06:59;;;;;;;;;;;1.70;99.90;;;;;;5048075;28;19987;-67
2024/01/19 03:09:27;;;;;;;;;;;1.70;99.90;;;;;;5051968;28;19943;-67
2024/01/19 03:11:52;;;;;;;;;;;1.60;99.90;;;;;;5044134;28;20550;-67
2024/01/19 03:14:18;;;;;;;;;;;1.60;99.90;;;;;;5032702;28;19928;-67
2024/01/19 03:16:45;;;;;;;;;;;1.60;99.90;;;;;;5047376;28;19916;-67
2024/01/19 03:19:11;;;;;;;;;;;1.60;99.90;;;;;;5047342;28;19916;-67
2024/01/19 03:21:36;;;;;;;;;;;1.60;99.90;;;;;;5046075;28;19921;-67
2024/01/19 03:24:02;;;;;;;;;;;1.60;99.90;;;;;;5047429;28;19913;-67
2024/01/19 03:26:32;;;;;;;;;;;1.60;99.90;;;;;;5047115;28;19955;-67
2024/01/19 03:29:00;;;;;;;;;;;1.60;99.90;;;;;;5048122;28;20003;-67
2024/01/19 03:31:26;;;;;;;;;;;1.60;99.90;;;;;;5047614;28;19908;-67
2024/01/19 03:33:51;;;;;;;;;;;1.60;99.90;;;;;;5046907;28;20388;-67
2024/01/19 03:36:19;;;;;;;;;;;1.60;99.90;;;;;;5043245;28;19919;-67
2024/01/19 03:38:44;;;;;;;;;;;1.60;99.90;;;;;;5051045;28;19920;-67
2024/01/19 03:41:12;;;;;;;;;;;1.70;99.90;;;;;;5045305;28;19916;-67
2024/01/19 03:43:38;;;;;;;;;;;1.70;99.90;;;;;;5046426;28;19917;-67
2024/01/19 03:46:03;;;;;;;;;;;1.70;99.90;;;;;;5047555;28;19921;-67
2024/01/19 03:48:31;;;;;;;;;;;1.70;99.90;;;;;;5046509;28;20007;-67
2024/01/19 03:50:56;;;;;;;;;;;1.70;99.90;;;;;;5046785;28;19913;-67
2024/01/19 03:53:24;;;;;;;;;;;1.70;99.90;;;;;;5047264;28;19920;-67
2024/01/19 03:55:52;;;;;;;;;;;1.70;99.90;;;;;;5046082;28;19955;-67
2024/01/19 03:58:18;;;;;;;;;;;1.70;99.90;;;;;;5046534;28;19971;-67
2024/01/19 04:00:43;;;;;;;;;;;1.80;99.90;;;;;;5047432;28;20300;-67
2024/01/19 04:03:11;;;;;;;;;;;1.70;99.90;;;;;;5047073;28;19920;-67
2024/01/19 04:05:39;;;;;;;;;;;1.70;99.90;;;;;;5046827;28;20524;-67
2024/01/19 04:08:06;;;;;;;;;;;1.80;99.90;;;;;;5041329;28;20382;-66
2024/01/19 04:10:32;;;;;;;;;;;1.80;99.90;;;;;;5042584;28;19951;-67
2024/01/19 04:12:57;;;;;;;;;;;1.80;99.90;;;;;;5043807;28;19952;-67
2024/01/19 04:15:25;;;;;;;;;;;1.80;99.90;;;;;;5048218;28;19916;-67
2024/01/19 04:17:51;;;;;;;;;;;1.70;99.90;;;;;;5045946;28;19912;-67
2024/01/19 04:20:16;;;;;;;;;;;1.70;99.90;;;;;;5046669;28;20534;-67
2024/01/19 04:22:42;;;;;;;;;;;1.70;99.90;;;;;;5048693;28;19951;-67
2024/01/19 04:25:10;;;;;;;;;;;1.70;99.90;;;;;;5044739;28;19944;-67
2024/01/19 04:27:38;;;;;;;;;;;1.70;99.90;;;;;;5046784;28;20648;-67
2024/01/19 04:30:03;;;;;;;;;;;1.70;99.90;;;;;;5037419;28;19917;-67
2024/01/19 04:32:29;;;;;;;;;;;1.70;99.90;;;;;;5045229;28;19923;-67
2024/01/19 04:34:54;;;;;;;;;;;1.70;99.90;;;;;;5046527;28;19920;-67
2024/01/19 04:37:20;;;;;;;;;;;1.60;99.90;;;;;;5051564;28;20367;-67
2024/01/19 04:39:48;;;;;;;;;;;1.60;99.90;;;;;;5046405;28;20299;-67
2024/01/19 04:42:14;;;;;;;;;;;1.60;99.90;;;;;;5040780;28;19990;-67
2024/01/19 04:44:42;;;;;;;;;;;1.60;99.90;;;;;;5045101;28;19999;-67
2024/01/19 04:47:09;;;;;;;;;;;1.50;99.90;;;;;;5043931;28;19977;-67
2024/01/19 04:49:35;;;;;;;;;;;1.50;99.90;;;;;;5045210;28;19920;-67
2024/01/19 04:52:03;;;;;;;;;;;1.50;99.90;;;;;;5044330;28;19913;-67
2024/01/19 04:54:30;;;;;;;;;;;1.50;99.90;;;;;;5039711;28;19917;-67
2024/01/19 04:57:01;;;;;;;;;;;1.50;99.90;;;;;;5044570;28;19944;-67
2024/01/19 04:59:27;;;;;;;;;;;1.40;99.90;;;;;;5040230;28;20433;-67
2024/01/19 05:01:52;;;;;;;;;;;1.40;99.90;;;;;;5046211;28;19917;-67
2024/01/19 05:04:22;;;;;;;;;;;1.40;99.90;;;;;;5045327;28;19917;-67
2024/01/19 05:06:47;;;;;;;;;;;1.40;99.90;;;;;;5045936;28;19911;-67
2024/01/19 05:09:13;;;;;;;;;;;1.40;99.90;;;;;;5044248;28;20008;-67
2024/01/19 05:11:41;;;;;;;;;;;1.40;99.90;;;;;;5050172;28;20415;-67
2024/01/19 05:14:06;;;;;;;;;;;1.40;99.90;;;;;;5045789;28;20007;-67
2024/01/19 05:16:32;;;;;;;;;;;1.40;99.90;;;;;;5044429;28;20007;-67
2024/01/19 05:19:00;;;;;;;;;;;1.30;99.90;;;;;;5045936;28;20000;-67
2024/01/19 05:21:26;;;;;;;;;;;1.30;99.90;;;;;;5039410;28;19924;-67
2024/01/19 05:23:54;;;;;;;;;;;1.30;99.90;;;;;;5044637;28;19913;-67
2024/01/19 05:26:19;;;;;;;;;;;1.30;99.90;;;;;;5044172;28;19951;-67
2024/01/19 05:28:47;;;;;;;;;;;1.30;99.90;;;;;;5044021;28;19948;-67
2024/01/19 05:31:17;;;;;;;;;;;1.30;99.90;;;;;;5042647;28;19948;-67
2024/01/19 05:33:42;;;;;;;;;;;1.30;99.90;;;;;;5042322;28;19923;-67
2024/01/19 05:36:10;;;;;;;;;;;1.30;99.90;;;;;;5045413;28;20011;-67
2024/01/19 05:38:36;;;;;;;;;;;1.30;99.90;;;;;;5032596;28;19919;-67
2024/01/19 05:41:01;;;;;;;;;;;1.30;99.90;;;;;;5043490;28;19920;-67
2024/01/19 05:43:27;;;;;;;;;;;1.30;99.90;;;;;;5046089;28;19916;-67
2024/01/19 05:45:53;;;;;;;;;;;1.30;99.90;;;;;;5042790;28;19963;-67
2024/01/19 05:48:19;;;;;;;;;;;1.40;99.90;;;;;;5039253;28;20445;-67
2024/01/19 05:50:44;;;;;;;;;;;1.40;99.90;;;;;;5044605;28;19912;-67
2024/01/19 05:53:09;;;;;;;;;;;1.40;99.90;;;;;;5044643;28;20388;-67
2024/01/19 05:55:35;;;;;;;;;;;1.40;99.90;;;;;;5042165;28;19920;-67
2024/01/19 05:58:03;;;;;;;;;;;1.40;99.90;;;;;;5044437;28;20766;-67
2024/01/19 06:00:31;;;;;;;;;;;1.40;99.90;;;;;;5041402;28;19929;-67
2024/01/19 06:02:56;;;;;;;;;;;1.30;99.90;;;;;;5036697;28;19921;-67
2024/01/19 06:05:22;;;;;;;;;;;1.30;99.90;;;;;;5044729;28;19958;-66
2024/01/19 06:07:47;;;;;;;;;;;1.30;99.90;;;;;;5041277;28;19913;-69
2024/01/19 06:10:13;;;;;;;;;;;1.30;99.90;;;;;;5040017;28;19967;-67
2024/01/19 06:12:38;;;;;;;;;;;1.40;99.90;;;;;;5038648;28;20380;-67
2024/01/19 06:15:06;;;;;;;;;;;1.40;99.90;;;;;;5041771;28;19914;-67
2024/01/19 06:17:32;;;;;;;;;;;1.40;99.90;;;;;;5031560;28;20508;-68
2024/01/19 06:19:57;;;;;;;;;;;1.40;99.90;;;;;;5037627;28;19916;-67
2024/01/19 06:22:23;;;;;;;;;;;1.40;99.90;;;;;;5036687;28;20067;-67
2024/01/19 06:24:51;;;;;;;;;;;1.40;99.90;;;;;;5039149;28;19999;-67
2024/01/19 06:27:21;;;;;;;;;;;1.40;99.90;;;;;;5035404;28;19953;-67
2024/01/19 06:29:49;;;;;;;;;;;1.40;99.90;;;;;;5037787;28;19967;-67
2024/01/19 06:32:15;;;;;;;;;;;1.40;99.90;;;;;;5038513;28;20519;-67
2024/01/19 06:34:41;;;;;;;;;;;1.40;99.90;;;;;;5039930;28;19960;-67
2024/01/19 06:37:07;;;;;;;;;;;1.40;99.90;;;;;;5036360;28;20539;-67
2024/01/19 06:39:32;;;;;;;;;;;1.30;99.90;;;;;;5038638;28;19939;-67
2024/01/19 06:41:58;;;;;;;;;;;1.30;99.90;;;;;;5040052;28;20019;-67
2024/01/19 06:44:24;;;;;;;;;;;1.30;99.90;;;;;;5045768;28;19917;-67
2024/01/19 06:46:52;;;;;;;;;;;1.30;99.90;;;;;;5036559;22;19921;-67
2024/01/19 06:49:17;;;;;;;;;;;1.30;99.90;;;;;;5020478;28;20330;-67
2024/01/19 06:51:43;;;;;;;;;;;1.30;99.90;;;;;;5023537;28;19905;-68
2024/01/19 06:54:10;;;;;;;;;;;1.30;99.90;;;;;;5024323;28;19917;-67
2024/01/19 06:56:36;;;;;;;;;;;1.30;99.90;;;;;;5020851;28;20018;-68
2024/01/19 06:59:02;;;;;;;;;;;1.20;99.90;;;;;;5025584;28;20579;-68
2024/01/19 07:01:28;;;;;;;;;;;1.20;99.90;;;;;;5022744;28;20083;-68
2024/01/19 07:03:55;;;;;;;;;;;1.20;99.90;;;;;;5019521;28;20431;-67
2024/01/19 07:06:23;;;;;;;;;;;1.20;99.90;;;;;;5021449;28;20007;-67
2024/01/19 07:08:49;;;;;;;;;;;1.20;99.90;;;;;;5025850;28;19932;-67
2024/01/19 07:11:14;;;;;;;;;;;1.20;99.90;;;;;;5022932;28;20245;-67
2024/01/19 07:13:42;;;;;;;;;;;1.20;99.90;;;;;;5014424;28;19920;-67
2024/01/19 07:16:08;;;;;;;;;;;1.20;99.90;;;;;;5025209;28;20343;-67
2024/01/19 07:18:34;;;;;;;;;;;1.10;99.90;;;;;;5025122;28;20004;-68
2024/01/19 07:21:02;;;;;;;;;;;1.20;99.90;;;;;;5007967;28;19921;-68
2024/01/19 07:23:30;;;;;;;;;;;1.10;99.90;;;;;;5023296;28;19960;-68
2024/01/19 07:25:56;;;;;;;;;;;1.10;99.90;;;;;;5023155;28;19959;-68
2024/01/19 07:28:22;;;;;;;;;;;1.10;99.90;;;;;;5024690;28;19913;-68
2024/01/19 07:30:47;;;;;;;;;;;1.10;99.90;;;;;;5025242;28;19915;-68
2024/01/19 07:33:13;;;;;;;;;;;1.10;99.90;;;;;;5025719;28;20519;-68
2024/01/19 07:35:41;;;;;;;;;;;1.10;99.90;;;;;;5026232;28;19956;-68
2024/01/19 07:38:06;;;;;;;;;;;1.10;99.90;;;;;;5025831;28;19916;-68
2024/01/19 07:40:34;;;;;;;;;;;1.10;99.90;;;;;;5020724;28;20291;-68
2024/01/19 07:43:00;;;;;;;;;;;1.10;99.90;;;;;;5026084;28;19921;-68
2024/01/19 07:45:25;;;;;;;;;;;1.10;99.90;;;;;;5024532;28;20116;-68
2024/01/19 07:47:51;;;;;;;;;;;1.10;99.90;;;;;;5012624;28;19921;-68
2024/01/19 07:50:16;;;;;;;;;;;1.10;99.90;;;;;;5015316;28;20008;-68
2024/01/19 07:52:44;;;;;;;;;;;1.10;99.90;;;;;;5034100;28;20049;-68
2024/01/19 07:55:12;;;;;;;;;;;1.20;99.90;;;;;;5025878;28;19920;-68
2024/01/19 07:57:37;;;;;;;;;;;1.20;99.90;;;;;;5022260;28;19913;-68
2024/01/19 08:00:03;;;;;;;;;;;1.20;99.90;;;;;;5024791;28;19917;-68
2024/01/19 08:02:33;;;;;;;;;;;1.20;99.90;;;;;;5021110;28;19932;-68
2024/01/19 08:04:59;;;;;;;;;;;1.10;99.90;;;;;;5023418;28;19924;-68
2024/01/19 08:07:27;;;;;;;;;;;1.10;99.90;;;;;;5021157;28;19913;-68
2024/01/19 08:09:52;;;;;;;;;;;1.20;99.90;;;;;;5020445;28;19917;-68
2024/01/19 17:35:04;;;;;;;34.00;13.93;;;2.40;99.90;;;;;;5062569;27;20361;-66
2024/01/19 17:37:32;;;;;;;38.22;13.45;;;2.30;99.90;;;;;;5041683;28;20399;-69
2024/01/19 17:39:58;;;;;;;39.78;13.85;;;2.40;99.90;;;;;;5060740;28;20024;-67
2024/01/19 17:42:25;;;;;;;36.38;13.77;;;2.40;99.90;;;;;;5058274;28;20766;-67
2024/01/19 17:44:53;;;;;;;;;;;2.40;99.90;;;;;;5054192;28;20060;-67
2024/01/19 17:47:21;;;;;;;39.42;14.20;;;2.50;99.90;;;;;;5057208;28;20578;-67
2024/01/19 17:49:47;;;;;;;34.60;14.15;;;2.50;99.90;;;;;;5051147;28;20029;-67
2024/01/19 17:52:15;;;;;;;40.05;14.38;;;2.50;99.90;;;;;;5050133;28;20490;-67
2024/01/19 17:54:40;;;;;;;40.95;14.82;;;2.50;99.90;;;;;;5050578;28;20151;-67
2024/01/19 17:57:06;;;;;;;34.75;12.93;;;2.50;99.90;;;;;;5055757;28;20127;-67
2024/01/19 17:59:34;;;;;;;39.22;16.08;;;2.50;99.90;;;;;;5051170;28;20038;-67
2024/01/19 18:02:00;;;;;;;43.10;13.27;;;2.50;99.90;;;;;;5052735;28;20577;-67
2024/01/19 18:04:28;;;;;;;45.70;16.55;;;2.50;99.90;;;;;;5052959;28;20045;-67
2024/01/19 18:06:53;;;;;;;35.90;14.05;;;2.50;99.90;;;;;;5052979;28;20431;-68
2024/01/19 18:09:21;;;;;;;41.80;14.32;;;2.50;99.90;;;;;;5055008;28;20577;-67
2024/01/19 18:11:53;;;;;;;;;;;2.50;99.90;;;;;;5052330;28;20178;-67
2024/01/19 18:14:19;;;;;;;;;;;2.50;99.90;;;;;;5059652;28;20394;-67
2024/01/19 18:16:47;;;;;;;;;;;2.50;99.90;;;;;;5053072;28;19917;-67
2024/01/19 18:19:15;;;;;;;;;;;2.60;99.90;;;;;;5056621;28;19912;-67
2024/01/19 18:21:43;;;;;;;;;;;2.50;99.90;;;;;;5056057;28;19917;-67
2024/01/19 18:24:08;;;;;;;;;;;2.50;99.90;;;;;;5047755;28;19920;-67
2024/01/19 18:26:36;;;;;;;;;;;2.50;99.90;;;;;;5055019;28;20053;-69
2024/01/19 18:29:07;;;;;;;;;;;2.50;99.90;;;;;;5052411;28;20190;-67
2024/01/19 18:31:32;;;;;;;;;;;2.60;99.90;;;;;;5050811;28;19917;-67
2024/01/19 18:33:58;;;;;;;;;;;2.50;99.90;;;;;;5048059;28;19985;-67
2024/01/19 18:36:24;;;;;;;;;;;2.60;99.90;;;;;;5056767;28;19917;-67
2024/01/19 18:38:49;;;;;;;;;;;2.50;99.90;;;;;;5057101;28;19920;-67
2024/01/19 18:41:15;;;;;;;;;;;2.50;99.90;;;;;;5060457;28;19927;-67
2024/01/19 18:43:40;;;;;;;;;;;2.60;99.90;;;;;;5053379;28;20054;-67
2024/01/19 18:46:06;;;;;;;;;;;2.60;99.90;;;;;;5031305;23;19929;-67
2024/01/19 18:48:36;;;;;;;;;;;2.60;99.90;;;;;;4985299;28;20407;-67
2024/01/19 18:51:02;;;;;;;;;;;2.60;99.90;;;;;;4981056;28;20395;-67
2024/01/19 18:53:30;;;;;;;;;;;2.60;99.90;;;;;;4986905;28;19921;-67
2024/01/19 18:55:58;;;;;;;;;;;2.60;99.90;;;;;;4980910;28;19953;-67
2024/01/19 18:58:24;;;;;;;;;;;2.60;99.90;;;;;;4988391;28;20381;-67
2024/01/19 19:00:52;;;;;;;;;;;2.50;99.90;;;;;;4995861;28;19945;-67
2024/01/19 19:03:17;;;;;;;;;;;2.50;99.90;;;;;;4986336;28;19906;-67
2024/01/19 19:05:43;;;;;;;;;;;2.50;99.90;;;;;;4982012;28;19910;-67
2024/01/19 19:08:10;;;;;;;;;;;2.50;99.90;;;;;;4986998;28;19917;-67
2024/01/19 19:10:38;;;;;;;;;;;2.50;99.90;;;;;;4982673;28;19922;-67
2024/01/19 19:13:05;;;;;;;;;;;2.50;99.90;;;;;;4980251;28;20304;-67
2024/01/19 19:15:36;;;;;;;;;;;2.50;99.90;;;;;;4984658;28;19933;-67
2024/01/19 19:18:01;;;;;;;;;;;2.50;99.90;;;;;;4980015;28;19913;-67
2024/01/19 19:20:27;;;;;;;;;;;2.50;99.90;;;;;;4984434;28;19914;-67
2024/01/19 19:22:56;;;;;;;;;;;2.50;99.90;;;;;;4982347;28;19925;-67
2024/01/19 19:25:23;;;;;;;;;;;2.50;99.90;;;;;;4986256;28;19923;-67
2024/01/19 19:27:49;;;;;;;;;;;2.50;99.90;;;;;;4985998;28;19980;-67
2024/01/19 19:30:15;;;;;;;;;;;2.50;99.90;;;;;;4989324;28;20331;-67
2024/01/19 19:32:42;;;;;;;;;;;2.50;99.90;;;;;;4985663;28;19906;-67
2024/01/19 19:35:08;;;;;;;;;;;2.50;99.90;;;;;;4984911;28;20319;-67
2024/01/19 19:37:33;;;;;;;;;;;2.50;99.90;;;;;;4981006;28;19921;-67
2024/01/19 19:39:59;;;;;;;;;;;2.40;99.90;;;;;;4983868;28;19918;-67
2024/01/19 19:42:24;;;;;;;;;;;2.40;99.90;;;;;;4982133;28;19918;-67
2024/01/19 19:44:49;;;;;;;;;;;2.40;99.90;;;;;;4982399;28;19910;-67
2024/01/19 19:47:17;;;;;;;;;;;2.40;99.90;;;;;;4982023;28;19922;-67
2024/01/19 19:49:43;;;;;;;;;;;2.40;99.90;;;;;;4980428;28;20409;-67
2024/01/19 19:52:09;;;;;;;;;;;2.40;99.90;;;;;;4975287;28;19922;-67
2024/01/19 19:54:34;;;;;;;;;;;2.40;99.90;;;;;;4981324;28;19943;-67
2024/01/19 19:57:03;;;;;;;;;;;2.40;99.90;;;;;;4982444;28;20353;-67
2024/01/19 19:59:28;;;;;;;;;;;2.40;99.90;;;;;;4984847;28;20423;-67
2024/01/19 20:01:54;;;;;;;;;;;2.40;99.90;;;;;;4984197;28;19921;-67
2024/01/19 20:04:19;;;;;;;;;;;2.40;99.90;;;;;;4973244;28;19917;-67
2024/01/19 20:06:47;;;;;;;;;;;2.40;99.90;;;;;;4979075;28;20060;-67
2024/01/19 20:09:13;;;;;;;;;;;2.40;99.90;;;;;;4984937;28;20361;-67
2024/01/19 20:11:38;;;;;;;;;;;2.40;99.90;;;;;;4982650;28;20297;-67
2024/01/19 20:14:04;;;;;;;;;;;2.40;99.90;;;;;;4983824;28;19968;-67
2024/01/19 20:16:29;;;;;;;;;;;2.30;99.90;;;;;;4979693;28;20074;-67
2024/01/19 20:18:55;;;;;;;;;;;2.30;99.90;;;;;;4984895;28;20284;-67
2024/01/19 20:21:20;;;;;;;;;;;2.30;99.90;;;;;;4989207;28;19945;-67
2024/01/19 20:23:48;;;;;;;;;;;2.30;99.90;;;;;;4988693;28;19944;-68
2024/01/19 20:26:16;;;;;;;;;;;2.30;99.90;;;;;;4977033;28;19921;-67
2024/01/19 20:28:44;;;;;;;;;;;2.30;99.90;;;;;;4981552;28;19972;-67
2024/01/19 20:31:12;;;;;;;;;;;2.30;99.90;;;;;;4981914;28;19921;-67
2024/01/19 20:33:38;;;;;;;;;;;2.30;99.90;;;;;;4976987;28;20527;-67
2024/01/19 20:36:04;;;;;;;;;;;2.30;99.90;;;;;;4982780;28;20020;-68
2024/01/19 20:38:29;;;;;;;;;;;2.30;99.90;;;;;;4976602;28;19973;-67
2024/01/19 20:40:55;;;;;;;;;;;2.30;99.90;;;;;;4985739;28;19918;-67
2024/01/19 20:43:20;;;;;;;;;;;2.30;99.90;;;;;;4971118;28;19928;-68
2024/01/19 20:45:46;;;;;;;;;;;2.20;99.90;;;;;;4967381;28;19964;-67
2024/01/19 20:48:14;;;;;;;;;;;2.20;99.90;;;;;;4977313;28;19926;-67
2024/01/19 20:50:42;;;;;;;;;;;2.20;99.90;;;;;;4959646;28;19958;-67
2024/01/19 20:53:07;;;;;;;;;;;2.20;99.90;;;;;;4976073;28;19917;-67
2024/01/19 20:55:33;;;;;;;;;;;2.20;99.90;;;;;;4971132;28;19922;-67
2024/01/19 20:57:58;;;;;;;;;;;2.20;99.90;;;;;;4967866;28;19933;-67
2024/01/19 21:00:26;;;;;;;;;;;2.20;99.90;;;;;;4977765;28;19910;-68
2024/01/19 21:02:54;;;;;;;;;;;2.20;99.90;;;;;;4955968;28;19906;-67
2024/01/19 21:05:19;;;;;;;;;;;2.20;99.90;;;;;;4973562;28;20368;-67
2024/01/19 21:07:45;;;;;;;;;;;2.20;99.90;;;;;;4959591;28;19939;-68
2024/01/19 21:10:10;;;;;;;;;;;2.20;99.90;;;;;;4963692;28;20400;-67
2024/01/19 21:12:38;;;;;;;;;;;2.10;99.90;;;;;;4969884;28;19914;-68
2024/01/19 21:15:06;;;;;;;;;;;2.10;99.90;;;;;;4984633;28;19963;-67
2024/01/19 21:17:34;;;;;;;;;;;2.10;99.90;;;;;;4983195;28;20324;-68
2024/01/19 21:20:00;;;;;;;;;;;2.20;99.90;;;;;;4970711;28;19918;-68
2024/01/19 21:22:25;;;;;;;;;;;2.20;99.90;;;;;;4968065;28;19910;-67
2024/01/19 21:24:53;;;;;;;;;;;2.20;99.90;;;;;;4982977;28;19914;-67
2024/01/19 21:27:21;;;;;;;;;;;2.20;99.90;;;;;;4977828;28;19914;-68
2024/01/19 21:29:48;;;;;;;;;;;2.10;99.90;;;;;;4964120;28;19910;-67
2024/01/19 21:32:13;;;;;;;;;;;2.10;99.90;;;;;;4978796;28;19921;-68
2024/01/19 21:34:41;;;;;;;;;;;2.10;99.90;;;;;;4972845;28;19922;-67
2024/01/19 21:37:07;;;;;;;;;;;2.10;99.90;;;;;;4967616;28;20016;-67
2024/01/19 21:39:34;;;;;;;;;;;2.10;99.90;;;;;;4966164;28;19997;-67
2024/01/19 21:42:00;;;;;;;;;;;2.10;99.90;;;;;;4967268;28;20572;-68
2024/01/19 21:44:30;;;;;;;;;;;2.10;99.90;;;;;;4967565;28;19913;-67
2024/01/19 21:46:58;;;;;;;;;;;2.10;99.90;;;;;;4967572;28;19996;-67
2024/01/19 21:49:24;;;;;;;;;;;2.10;99.90;;;;;;4971505;28;20098;-67
2024/01/19 21:51:49;;;;;;;;;;;2.10;99.90;;;;;;4988294;28;20507;-67
2024/01/19 21:54:15;;;;;;;;;;;2.10;99.90;;;;;;4985134;28;20365;-67
2024/01/19 21:56:40;;;;;;;;;;;2.10;99.90;;;;;;4969181;28;19910;-67
2024/01/19 21:59:06;;;;;;;;;;;2.10;99.90;;;;;;4973442;28;19921;-67
2024/01/19 22:01:34;;;;;;;;;;;2.10;99.90;;;;;;4975747;28;19914;-67
2024/01/19 22:03:59;;;;;;;;;;;2.10;99.90;;;;;;4967301;28;20040;-67
2024/01/19 22:06:25;;;;;;;;;;;2.10;99.90;;;;;;4961641;28;20005;-67
2024/01/19 22:08:52;;;;;;;;;;;2.10;99.90;;;;;;4957714;28;20346;-67
2024/01/19 22:11:20;;;;;;;;;;;2.10;99.90;;;;;;4966045;28;20363;-67
2024/01/19 22:13:48;;;;;;;;;;;2.10;99.90;;;;;;4961862;28;19925;-67
2024/01/19 22:16:14;;;;;;;;;;;2.10;99.90;;;;;;4972510;28;19914;-67
2024/01/19 22:18:39;;;;;;;;;;;2.10;99.90;;;;;;4972419;28;19921;-67
2024/01/19 22:21:08;;;;;;;;;;;2.10;99.90;;;;;;4962843;28;19919;-67
2024/01/19 22:23:36;;;;;;;;;;;2.10;99.90;;;;;;4978678;28;19918;-67
2024/01/19 22:26:02;;;;;;;;;;;2.10;99.90;;;;;;4969452;28;20009;-67
2024/01/19 22:28:34;;;;;;;;;;;2.10;99.90;;;;;;4969278;28;20017;-67
2024/01/19 22:31:02;;;;;;;;;;;2.10;99.90;;;;;;4971391;28;19918;-67
2024/01/19 22:33:28;;;;;;;;;;;2.10;99.90;;;;;;4981226;28;20457;-67
2024/01/19 22:35:54;;;;;;;;;;;2.10;99.90;;;;;;4966677;28;20088;-67
2024/01/19 22:38:19;;;;;;;;;;;2.10;99.90;;;;;;4963770;28;19925;-67
2024/01/19 22:40:47;;;;;;;;;;;2.10;99.90;;;;;;4963405;28;19953;-67
2024/01/19 22:43:16;;;;;;;;;;;2.10;99.90;;;;;;4973569;28;20345;-67
2024/01/19 22:45:44;;;;;;;;;;;2.00;99.90;;;;;;4983437;28;19976;-67
2024/01/19 22:48:09;;;;;;;;;;;2.00;99.90;;;;;;4964803;28;20564;-67
2024/01/19 22:50:37;;;;;;;;;;;2.00;99.90;;;;;;4958450;28;19906;-67
2024/01/19 22:53:03;;;;;;;;;;;2.10;99.90;;;;;;4960800;28;19914;-67
2024/01/19 22:55:30;;;;;;;;;;;2.10;99.90;;;;;;4965547;28;19956;-67
2024/01/19 22:57:56;;;;;;;;;;;2.10;99.90;;;;;;4968287;28;19927;-67
2024/01/19 23:00:25;;;;;;;;;;;2.10;99.90;;;;;;4961992;28;20440;-67
2024/01/19 23:02:53;;;;;;;;;;;2.00;99.90;;;;;;4966692;28;19992;-67
2024/01/19 23:05:21;;;;;;;;;;;2.10;99.90;;;;;;4959597;28;19999;-67
2024/01/19 23:07:47;;;;;;;;;;;2.10;99.90;;;;;;4978921;28;19914;-67
2024/01/19 23:10:13;;;;;;;;;;;2.10;99.90;;;;;;4971841;28;19960;-67
2024/01/19 23:12:39;;;;;;;;;;;2.10;99.90;;;;;;4967496;28;19925;-67
2024/01/19 23:15:07;;;;;;;;;;;2.00;99.90;;;;;;4961544;28;19914;-67
2024/01/19 23:17:35;;;;;;;;;;;2.00;99.90;;;;;;4983770;28;19917;-67
2024/01/19 23:20:00;;;;;;;;;;;2.00;99.90;;;;;;4980032;28;20335;-68
2024/01/19 23:22:26;;;;;;;;;;;2.00;99.90;;;;;;4985196;28;19948;-67
2024/01/19 23:24:52;;;;;;;;;;;2.00;99.90;;;;;;4987204;28;20415;-67
2024/01/19 23:27:17;;;;;;;;;;;2.00;99.90;;;;;;4982843;28;20403;-67
2024/01/19 23:29:43;;;;;;;;;;;2.00;99.90;;;;;;4988280;28;19960;-67
2024/01/19 23:32:09;;;;;;;;;;;2.10;99.90;;;;;;4989951;28;19924;-67
2024/01/19 23:34:37;;;;;;;;;;;2.00;99.90;;;;;;4987251;28;19929;-67
2024/01/19 23:37:02;;;;;;;;;;;2.10;99.90;;;;;;4991314;28;19925;-67
2024/01/19 23:39:28;;;;;;;;;;;2.10;99.90;;;;;;4987023;28;19918;-67
2024/01/19 23:41:53;;;;;;;;;;;2.10;99.90;;;;;;4993218;28;19909;-67